KNTU/NTU METAR and TAF weather

Enter ICAO airport designator
Station Type Date Time Source
KNTU METAR 2022/08/12 14:56 UTC NOAA

KNTU 121456Z 08004KT 10SM CLR 24/18 A3000 RMK AO2 SLP159 T02440183 51015


Station Type Date Time Source
KNTU Decoded METAR 2022/08/12 14:56 UTC NOAA

OCEANA, NAVAL AIR STATION, VA, United States (KNTU) 36-49N 076-02W 6M
Aug 12, 2022 - 10:56 AM EDT / 2022.08.12 1456 UTC
Wind: from the E (080 degrees) at 5 MPH (4 KT):0
Visibility: 10 mile(s):0
Sky conditions: clear
Temperature: 75.9 F (24.4 C)
Dew Point: 64.9 F (18.3 C)
Relative Humidity: 68%
Pressure (altimeter): 30 in. Hg (1015 hPa)
Pressure tendency: 0.04 inches (1.5 hPa) higher than three hours ago
ob: KNTU 121456Z 08004KT 10SM CLR 24/18 A3000 RMK AO2 SLP159 T02440183 51015
cycle: 15

Station Type Date Time Source
KNTU TAF 2022/08/12 15:13 UTC NOAA

TAF KNTU 1215/1315 05007KT 9999 VCSH SCT030 BKN120 BKN250 QNH2992INS
TEMPO 1217/1223 VRB15G25KT 1600 TSRA BKN020CB OVC040
FM130000 04010KT 9999 SCT025 BKN050 BKN250 QNH2991INS
FM130900 03012G18KT 9999 SCT030 SCT250 QNH2997INS T26/1219Z T22/1309Z FN20008

Example: see airport list